sensor_id;sensor_type;location;lat;lon;timestamp;temperature;humidity
38167;DHT22;23980;51.902;12.832;2022-07-29T00:02:11;17.10;38.60
38167;DHT22;23980;51.902;12.832;2022-07-29T00:07:11;17.00;38.60
38167;DHT22;23980;51.902;12.832;2022-07-29T00:12:12;17.00;38.70
38167;DHT22;23980;51.902;12.832;2022-07-29T00:17:12;17.00;38.70
38167;DHT22;23980;51.902;12.832;2022-07-29T00:22:13;16.90;38.70
38167;DHT22;23980;51.902;12.832;2022-07-29T00:27:14;16.90;38.70
38167;DHT22;23980;51.902;12.832;2022-07-29T00:32:14;16.80;38.70
38167;DHT22;23980;51.902;12.832;2022-07-29T00:37:15;16.80;38.80
38167;DHT22;23980;51.902;12.832;2022-07-29T00:42:16;16.80;38.80
38167;DHT22;23980;51.902;12.832;2022-07-29T00:47:23;16.70;38.80
38167;DHT22;23980;51.902;12.832;2022-07-29T00:52:24;16.70;39.10
38167;DHT22;23980;51.902;12.832;2022-07-29T00:57:27;16.70;38.90
38167;DHT22;23980;51.902;12.832;2022-07-29T01:02:30;16.70;39.00
38167;DHT22;23980;51.902;12.832;2022-07-29T01:07:32;16.70;39.00
38167;DHT22;23980;51.902;12.832;2022-07-29T01:12:35;16.70;39.00
38167;DHT22;23980;51.902;12.832;2022-07-29T01:17:44;16.70;39.00
38167;DHT22;23980;51.902;12.832;2022-07-29T01:34:05;16.60;39.30
38167;DHT22;23980;51.902;12.832;2022-07-29T01:39:10;16.60;39.10
38167;DHT22;23980;51.902;12.832;2022-07-29T01:44:22;16.60;39.10
38167;DHT22;23980;51.902;12.832;2022-07-29T01:49:28;16.60;39.20
38167;DHT22;23980;51.902;12.832;2022-07-29T01:54:41;16.50;39.10
38167;DHT22;23980;51.902;12.832;2022-07-29T01:59:45;16.50;39.30
38167;DHT22;23980;51.902;12.832;2022-07-29T02:04:47;16.50;39.20
38167;DHT22;23980;51.902;12.832;2022-07-29T02:09:50;16.40;39.10
38167;DHT22;23980;51.902;12.832;2022-07-29T02:14:54;16.40;39.20
38167;DHT22;23980;51.902;12.832;2022-07-29T02:20:02;16.30;39.20
38167;DHT22;23980;51.902;12.832;2022-07-29T02:25:04;16.30;39.40
38167;DHT22;23980;51.902;12.832;2022-07-29T02:30:06;16.30;39.70
38167;DHT22;23980;51.902;12.832;2022-07-29T02:35:08;16.30;39.20
38167;DHT22;23980;51.902;12.832;2022-07-29T02:40:11;16.30;39.30
38167;DHT22;23980;51.902;12.832;2022-07-29T02:45:13;16.20;39.30
38167;DHT22;23980;51.902;12.832;2022-07-29T02:50:32;16.20;39.30
38167;DHT22;23980;51.902;12.832;2022-07-29T02:55:41;16.20;39.30
38167;DHT22;23980;51.902;12.832;2022-07-29T03:00:44;16.10;39.50
38167;DHT22;23980;51.902;12.832;2022-07-29T03:05:47;16.10;39.30
38167;DHT22;23980;51.902;12.832;2022-07-29T03:10:48;16.10;39.40
38167;DHT22;23980;51.902;12.832;2022-07-29T03:15:55;16.10;39.40
38167;DHT22;23980;51.902;12.832;2022-07-29T03:20:56;16.10;39.60
38167;DHT22;23980;51.902;12.832;2022-07-29T03:25:56;16.00;39.40
38167;DHT22;23980;51.902;12.832;2022-07-29T03:31:00;16.00;39.40
38167;DHT22;23980;51.902;12.832;2022-07-29T03:36:01;16.00;39.60
38167;DHT22;23980;51.902;12.832;2022-07-29T03:41:09;16.00;39.40
38167;DHT22;23980;51.902;12.832;2022-07-29T03:46:11;16.10;39.60
38167;DHT22;23980;51.902;12.832;2022-07-29T03:51:16;16.00;39.60
38167;DHT22;23980;51.902;12.832;2022-07-29T03:56:17;16.00;39.60
38167;DHT22;23980;51.902;12.832;2022-07-29T04:01:22;16.00;39.60
38167;DHT22;23980;51.902;12.832;2022-07-29T04:06:25;16.00;39.60
38167;DHT22;23980;51.902;12.832;2022-07-29T04:11:26;15.90;39.50
38167;DHT22;23980;51.902;12.832;2022-07-29T04:16:26;15.90;39.50
38167;DHT22;23980;51.902;12.832;2022-07-29T04:21:27;15.80;39.50
38167;DHT22;23980;51.902;12.832;2022-07-29T04:26:44;15.80;39.40
38167;DHT22;23980;51.902;12.832;2022-07-29T04:31:45;15.80;39.70
38167;DHT22;23980;51.902;12.832;2022-07-29T04:36:46;15.70;39.40
38167;DHT22;23980;51.902;12.832;2022-07-29T04:41:47;15.70;39.40
38167;DHT22;23980;51.902;12.832;2022-07-29T04:46:49;15.60;39.40
38167;DHT22;23980;51.902;12.832;2022-07-29T04:51:50;15.60;39.40
38167;DHT22;23980;51.902;12.832;2022-07-29T04:56:50;15.60;39.50
38167;DHT22;23980;51.902;12.832;2022-07-29T05:01:51;15.60;39.60
38167;DHT22;23980;51.902;12.832;2022-07-29T05:06:51;15.70;39.60
38167;DHT22;23980;51.902;12.832;2022-07-29T05:11:52;15.70;39.60
38167;DHT22;23980;51.902;12.832;2022-07-29T05:16:53;15.70;39.60
38167;DHT22;23980;51.902;12.832;2022-07-29T05:21:57;15.70;39.70
38167;DHT22;23980;51.902;12.832;2022-07-29T05:27:02;15.70;39.70
38167;DHT22;23980;51.902;12.832;2022-07-29T05:32:03;15.70;39.80
38167;DHT22;23980;51.902;12.832;2022-07-29T05:37:04;15.70;39.60
38167;DHT22;23980;51.902;12.832;2022-07-29T05:42:10;15.60;39.60
38167;DHT22;23980;51.902;12.832;2022-07-29T05:47:10;15.60;39.70
38167;DHT22;23980;51.902;12.832;2022-07-29T05:52:11;15.60;39.70
38167;DHT22;23980;51.902;12.832;2022-07-29T05:57:20;15.60;39.70
38167;DHT22;23980;51.902;12.832;2022-07-29T06:02:21;15.60;40.10
38167;DHT22;23980;51.902;12.832;2022-07-29T06:07:24;15.60;39.90
38167;DHT22;23980;51.902;12.832;2022-07-29T06:12:25;15.70;40.00
38167;DHT22;23980;51.902;12.832;2022-07-29T06:17:26;15.80;40.00
38167;DHT22;23980;51.902;12.832;2022-07-29T06:22:27;15.90;40.10
38167;DHT22;23980;51.902;12.832;2022-07-29T06:27:27;15.90;40.20
38167;DHT22;23980;51.902;12.832;2022-07-29T06:32:28;16.00;40.20
38167;DHT22;23980;51.902;12.832;2022-07-29T06:37:30;16.10;40.20
38167;DHT22;23980;51.902;12.832;2022-07-29T06:42:30;16.20;40.30
38167;DHT22;23980;51.902;12.832;2022-07-29T06:47:31;16.30;40.30
38167;DHT22;23980;51.902;12.832;2022-07-29T06:52:32;16.60;40.50
38167;DHT22;23980;51.902;12.832;2022-07-29T06:57:32;16.70;40.50
38167;DHT22;23980;51.902;12.832;2022-07-29T07:02:33;16.90;40.60
38167;DHT22;23980;51.902;12.832;2022-07-29T07:07:33;17.20;40.70
38167;DHT22;23980;51.902;12.832;2022-07-29T07:12:34;17.50;40.80
38167;DHT22;23980;51.902;12.832;2022-07-29T07:17:35;17.80;40.80
38167;DHT22;23980;51.902;12.832;2022-07-29T07:22:35;18.00;40.70
38167;DHT22;23980;51.902;12.832;2022-07-29T07:27:46;18.30;40.70
38167;DHT22;23980;51.902;12.832;2022-07-29T07:33:00;18.50;40.90
38167;DHT22;23980;51.902;12.832;2022-07-29T07:38:16;18.60;40.90
38167;DHT22;23980;51.902;12.832;2022-07-29T07:43:16;18.80;40.90
38167;DHT22;23980;51.902;12.832;2022-07-29T07:48:17;19.00;40.60
38167;DHT22;23980;51.902;12.832;2022-07-29T07:53:22;19.10;40.60
38167;DHT22;23980;51.902;12.832;2022-07-29T07:58:24;19.30;40.80
38167;DHT22;23980;51.902;12.832;2022-07-29T08:03:27;19.50;40.80
38167;DHT22;23980;51.902;12.832;2022-07-29T08:08:27;19.70;40.90
38167;DHT22;23980;51.902;12.832;2022-07-29T08:13:28;19.90;40.80
38167;DHT22;23980;51.902;12.832;2022-07-29T08:18:30;20.10;40.90
38167;DHT22;23980;51.902;12.832;2022-07-29T08:23:34;20.30;40.80
38167;DHT22;23980;51.902;12.832;2022-07-29T08:28:51;20.50;40.90
38167;DHT22;23980;51.902;12.832;2022-07-29T08:33:51;20.60;40.90
38167;DHT22;23980;51.902;12.832;2022-07-29T08:38:53;20.60;41.20
38167;DHT22;23980;51.902;12.832;2022-07-29T08:44:02;20.80;40.80
38167;DHT22;23980;51.902;12.832;2022-07-29T08:49:05;21.00;40.90
38167;DHT22;23980;51.902;12.832;2022-07-29T08:54:10;21.20;40.80
38167;DHT22;23980;51.902;12.832;2022-07-29T08:59:12;21.30;40.90
38167;DHT22;23980;51.902;12.832;2022-07-29T09:04:14;21.50;40.90
38167;DHT22;23980;51.902;12.832;2022-07-29T09:09:16;21.80;40.90
38167;DHT22;23980;51.902;12.832;2022-07-29T09:14:17;21.90;40.80
38167;DHT22;23980;51.902;12.832;2022-07-29T09:19:31;22.10;40.70
38167;DHT22;23980;51.902;12.832;2022-07-29T09:24:37;22.30;41.20
38167;DHT22;23980;51.902;12.832;2022-07-29T10:00:53;22.90;41.90
38167;DHT22;23980;51.902;12.832;2022-07-29T10:06:09;38.30;45.20
38167;DHT22;23980;51.902;12.832;2022-07-29T14:17:44;39.40;44.60
38167;DHT22;23980;51.902;12.832;2022-07-29T14:22:45;39.80;37.80
38167;DHT22;23980;51.902;12.832;2022-07-29T14:27:45;38.80;37.30
38167;DHT22;23980;51.902;12.832;2022-07-29T14:32:46;38.10;37.20
38167;DHT22;23980;51.902;12.832;2022-07-29T14:37:47;37.90;37.60
38167;DHT22;23980;51.902;12.832;2022-07-29T14:42:47;37.50;37.60
38167;DHT22;23980;51.902;12.832;2022-07-29T14:47:48;37.20;37.40
38167;DHT22;23980;51.902;12.832;2022-07-29T14:52:50;36.90;37.40
38167;DHT22;23980;51.902;12.832;2022-07-29T14:58:09;36.60;37.60
38167;DHT22;23980;51.902;12.832;2022-07-29T15:03:09;36.30;38.60
38167;DHT22;23980;51.902;12.832;2022-07-29T15:08:15;35.80;37.20
38167;DHT22;23980;51.902;12.832;2022-07-29T15:13:16;35.20;37.00
38167;DHT22;23980;51.902;12.832;2022-07-29T15:18:17;34.60;37.00
38167;DHT22;23980;51.902;12.832;2022-07-29T15:23:18;34.30;36.90
38167;DHT22;23980;51.902;12.832;2022-07-29T15:28:18;34.10;37.20
38167;DHT22;23980;51.902;12.832;2022-07-29T15:33:41;34.00;37.30
38167;DHT22;23980;51.902;12.832;2022-07-29T15:38:41;33.70;38.20
38167;DHT22;23980;51.902;12.832;2022-07-29T15:43:51;33.30;37.00
38167;DHT22;23980;51.902;12.832;2022-07-29T15:48:52;33.00;37.20
38167;DHT22;23980;51.902;12.832;2022-07-29T15:53:53;32.50;36.80
38167;DHT22;23980;51.902;12.832;2022-07-29T15:58:54;32.10;36.80
38167;DHT22;23980;51.902;12.832;2022-07-29T16:03:54;31.70;36.90
38167;DHT22;23980;51.902;12.832;2022-07-29T16:08:55;31.40;36.80
38167;DHT22;23980;51.902;12.832;2022-07-29T16:13:55;31.10;36.80
38167;DHT22;23980;51.902;12.832;2022-07-29T16:19:02;30.80;36.80
38167;DHT22;23980;51.902;12.832;2022-07-29T16:24:04;30.50;36.90
38167;DHT22;23980;51.902;12.832;2022-07-29T16:29:05;30.40;36.80
38167;DHT22;23980;51.902;12.832;2022-07-29T16:34:10;30.40;36.90
38167;DHT22;23980;51.902;12.832;2022-07-29T16:39:11;30.30;36.80
38167;DHT22;23980;51.902;12.832;2022-07-29T16:44:25;30.20;37.00
38167;DHT22;23980;51.902;12.832;2022-07-29T16:49:26;30.00;37.00
38167;DHT22;23980;51.902;12.832;2022-07-29T16:54:26;29.80;36.90
38167;DHT22;23980;51.902;12.832;2022-07-29T16:59:33;29.60;36.80
38167;DHT22;23980;51.902;12.832;2022-07-29T17:04:52;29.50;36.90
38167;DHT22;23980;51.902;12.832;2022-07-29T17:09:52;29.30;37.00
38167;DHT22;23980;51.902;12.832;2022-07-29T17:14:53;29.10;36.70
38167;DHT22;23980;51.902;12.832;2022-07-29T17:19:57;28.90;36.70
38167;DHT22;23980;51.902;12.832;2022-07-29T17:25:03;28.80;36.70
38167;DHT22;23980;51.902;12.832;2022-07-29T17:30:04;28.60;36.60
38167;DHT22;23980;51.902;12.832;2022-07-29T17:35:06;28.40;36.60
38167;DHT22;23980;51.902;12.832;2022-07-29T17:40:33;28.30;36.60
38167;DHT22;23980;51.902;12.832;2022-07-29T17:45:33;28.10;36.60
38167;DHT22;23980;51.902;12.832;2022-07-29T17:50:36;28.00;36.50
38167;DHT22;23980;51.902;12.832;2022-07-29T17:55:37;27.80;36.30
38167;DHT22;23980;51.902;12.832;2022-07-29T18:00:40;27.60;36.30
38167;DHT22;23980;51.902;12.832;2022-07-29T18:05:41;27.40;36.30
38167;DHT22;23980;51.902;12.832;2022-07-29T18:10:50;27.30;36.20
38167;DHT22;23980;51.902;12.832;2022-07-29T18:15:51;27.20;36.40
38167;DHT22;23980;51.902;12.832;2022-07-29T18:20:52;27.00;36.70
38167;DHT22;23980;51.902;12.832;2022-07-29T18:25:53;26.90;36.20
38167;DHT22;23980;51.902;12.832;2022-07-29T18:31:00;26.70;36.10
38167;DHT22;23980;51.902;12.832;2022-07-29T18:36:01;26.50;36.20
38167;DHT22;23980;51.902;12.832;2022-07-29T18:41:05;26.40;36.10
38167;DHT22;23980;51.902;12.832;2022-07-29T18:46:06;26.30;36.20
38167;DHT22;23980;51.902;12.832;2022-07-29T18:51:07;26.20;36.20
38167;DHT22;23980;51.902;12.832;2022-07-29T18:56:14;26.00;36.10
38167;DHT22;23980;51.902;12.832;2022-07-29T19:01:16;25.90;36.30
38167;DHT22;23980;51.902;12.832;2022-07-29T19:06:20;25.80;36.20
38167;DHT22;23980;51.902;12.832;2022-07-29T19:11:27;25.70;36.10
38167;DHT22;23980;51.902;12.832;2022-07-29T19:16:29;25.60;36.20
38167;DHT22;23980;51.902;12.832;2022-07-29T19:21:30;25.50;36.20
38167;DHT22;23980;51.902;12.832;2022-07-29T19:26:31;25.40;36.20
38167;DHT22;23980;51.902;12.832;2022-07-29T19:31:33;25.30;36.30
38167;DHT22;23980;51.902;12.832;2022-07-29T19:36:34;25.10;36.20
38167;DHT22;23980;51.902;12.832;2022-07-29T19:41:36;25.00;36.20
38167;DHT22;23980;51.902;12.832;2022-07-29T19:46:37;24.90;36.20
38167;DHT22;23980;51.902;12.832;2022-07-29T19:51:38;24.90;36.40
38167;DHT22;23980;51.902;12.832;2022-07-29T19:56:41;24.80;36.40
38167;DHT22;23980;51.902;12.832;2022-07-29T20:01:43;24.70;36.40
38167;DHT22;23980;51.902;12.832;2022-07-29T20:06:44;24.60;36.30
38167;DHT22;23980;51.902;12.832;2022-07-29T20:11:44;24.60;36.30
38167;DHT22;23980;51.902;12.832;2022-07-29T20:16:45;24.50;36.30
38167;DHT22;23980;51.902;12.832;2022-07-29T20:21:45;24.40;36.20
38167;DHT22;23980;51.902;12.832;2022-07-29T20:26:47;24.30;36.30
38167;DHT22;23980;51.902;12.832;2022-07-29T20:31:47;24.30;36.30
38167;DHT22;23980;51.902;12.832;2022-07-29T20:36:48;24.20;36.30
38167;DHT22;23980;51.902;12.832;2022-07-29T20:41:49;24.10;36.30
38167;DHT22;23980;51.902;12.832;2022-07-29T20:46:50;24.00;36.40
38167;DHT22;23980;51.902;12.832;2022-07-29T20:51:50;23.90;36.30
38167;DHT22;23980;51.902;12.832;2022-07-29T20:56:51;23.80;36.60
38167;DHT22;23980;51.902;12.832;2022-07-29T21:02:14;23.80;36.60
38167;DHT22;23980;51.902;12.832;2022-07-29T21:07:42;23.70;36.80
38167;DHT22;23980;51.902;12.832;2022-07-29T21:12:47;23.60;36.80
38167;DHT22;23980;51.902;12.832;2022-07-29T21:17:57;23.50;36.70
38167;DHT22;23980;51.902;12.832;2022-07-29T21:23:05;23.50;36.90
38167;DHT22;23980;51.902;12.832;2022-07-29T21:28:07;23.40;36.60
38167;DHT22;23980;51.902;12.832;2022-07-29T21:33:30;23.30;36.60
38167;DHT22;23980;51.902;12.832;2022-07-29T21:38:34;23.30;36.70
38167;DHT22;23980;51.902;12.832;2022-07-29T21:43:38;23.20;36.80
38167;DHT22;23980;51.902;12.832;2022-07-29T21:48:38;23.20;36.80
38167;DHT22;23980;51.902;12.832;2022-07-29T21:53:39;23.10;36.70
38167;DHT22;23980;51.902;12.832;2022-07-29T21:58:39;23.10;36.70
38167;DHT22;23980;51.902;12.832;2022-07-29T22:03:40;23.00;36.80
38167;DHT22;23980;51.902;12.832;2022-07-29T22:08:41;23.00;36.80
38167;DHT22;23980;51.902;12.832;2022-07-29T22:13:44;22.90;36.80
38167;DHT22;23980;51.902;12.832;2022-07-29T22:18:45;22.90;36.80
38167;DHT22;23980;51.902;12.832;2022-07-29T22:23:47;22.80;36.80
38167;DHT22;23980;51.902;12.832;2022-07-29T22:28:48;22.80;36.80
38167;DHT22;23980;51.902;12.832;2022-07-29T22:33:52;22.60;36.80
38167;DHT22;23980;51.902;12.832;2022-07-29T22:38:52;22.60;36.90
38167;DHT22;23980;51.902;12.832;2022-07-29T22:43:53;22.60;36.90
38167;DHT22;23980;51.902;12.832;2022-07-29T22:48:53;22.60;37.00
38167;DHT22;23980;51.902;12.832;2022-07-29T22:53:54;22.50;37.00
38167;DHT22;23980;51.902;12.832;2022-07-29T22:58:54;22.50;36.90
38167;DHT22;23980;51.902;12.832;2022-07-29T23:03:55;22.40;36.90
38167;DHT22;23980;51.902;12.832;2022-07-29T23:08:55;22.30;36.90
38167;DHT22;23980;51.902;12.832;2022-07-29T23:13:56;22.30;36.90
38167;DHT22;23980;51.902;12.832;2022-07-29T23:18:57;22.30;37.00
38167;DHT22;23980;51.902;12.832;2022-07-29T23:23:57;22.20;37.10
38167;DHT22;23980;51.902;12.832;2022-07-29T23:28:59;22.10;37.20
38167;DHT22;23980;51.902;12.832;2022-07-29T23:33:59;22.10;37.30
38167;DHT22;23980;51.902;12.832;2022-07-29T23:39:00;22.00;37.30
38167;DHT22;23980;51.902;12.832;2022-07-29T23:44:03;21.90;37.40
38167;DHT22;23980;51.902;12.832;2022-07-29T23:49:04;21.90;37.60
38167;DHT22;23980;51.902;12.832;2022-07-29T23:54:05;21.80;37.60
38167;DHT22;23980;51.902;12.832;2022-07-29T23:59:06;21.70;37.50
